Time;durP1;ratioP1;P1;durP2;ratioP2;P2;SDS_P1;SDS_P2;PMS_P1;PMS_P2;Temp;Humidity;BMP_temperature;BMP_pressure;BME280_temperature;BME280_humidity;BME280_pressure;Samples;Min_cycle;Max_cycle;Signal;HPM_P1;HPM_P2
2021/03/25 00:00:35;;;;;;;;;76.50;56.75;;;;;-0.88;86.40;100287.22;5065519;28;8872;-58
2021/03/25 00:03:06;;;;;;;;;77.75;57.00;;;;;-0.86;86.30;100285.47;5068013;28;8887;-58
2021/03/25 00:05:33;;;;;;;;;78.25;54.50;;;;;-0.70;85.40;100287.13;5061976;28;8922;-59
2021/03/25 00:08:00;;;;;;;;;85.25;59.75;;;;;-0.58;84.51;100285.28;5065945;28;8821;-59
2021/03/25 00:10:35;;;;;;;;;80.75;53.50;;;;;-0.54;85.01;100287.88;5063500;28;8865;-59
2021/03/25 00:13:04;;;;;;;;;77.00;55.50;;;;;-0.80;84.87;100274.88;5063665;28;9561;-59
2021/03/25 00:15:33;;;;;;;;;90.50;61.50;;;;;-1.31;85.77;100279.53;5064238;28;8841;-59
2021/03/25 00:18:01;;;;;;;;;87.50;60.50;;;;;-1.49;86.53;100276.94;5063712;28;8850;-59
2021/03/25 00:20:28;;;;;;;;;78.25;59.75;;;;;-1.61;85.39;100283.97;5066029;28;8877;-59
2021/03/25 00:22:55;;;;;;;;;86.75;64.50;;;;;-1.46;85.07;100287.47;5068031;28;8826;-59
2021/03/25 00:25:30;;;;;;;;;85.75;59.50;;;;;-1.40;85.54;100284.81;5064293;28;8887;-59
2021/03/25 00:27:57;;;;;;;;;99.50;71.50;;;;;-1.39;85.99;100281.31;5063478;28;8826;-59
2021/03/25 00:30:30;;;;;;;;;89.25;64.25;;;;;-1.26;85.71;100271.56;5068289;28;8869;-58
2021/03/25 00:33:00;;;;;;;;;80.75;62.75;;;;;-1.26;86.38;100275.13;5064937;28;8886;-58
2021/03/25 00:35:29;;;;;;;;;77.50;61.00;;;;;-1.44;86.05;100280.44;5071570;28;8842;-58
2021/03/25 00:37:57;;;;;;;;;82.25;58.00;;;;;-1.68;87.09;100284.91;5062076;28;8818;-58
2021/03/25 00:40:28;;;;;;;;;88.50;63.75;;;;;-1.44;87.51;100283.09;5068975;28;8850;-58
2021/03/25 00:42:55;;;;;;;;;81.00;59.00;;;;;-1.36;86.21;100287.44;5065797;28;8910;-58
2021/03/25 00:45:41;;;;;;;;;82.00;59.50;;;;;-1.35;84.60;100277.75;5061488;28;8829;-59
2021/03/25 00:48:09;;;;;;;;;91.75;66.75;;;;;-1.68;85.82;100277.00;5066874;28;8835;-59
2021/03/25 00:50:45;;;;;;;;;88.50;60.25;;;;;-1.16;85.92;100282.09;5063401;28;8841;-58
2021/03/25 00:53:17;;;;;;;;;77.00;58.00;;;;;-0.85;85.07;100275.78;5065981;28;8924;-59
2021/03/25 00:55:44;;;;;;;;;72.00;51.25;;;;;-1.04;84.89;100285.56;5067950;28;8849;-59
2021/03/25 00:58:12;;;;;;;;;79.50;62.00;;;;;-1.72;86.48;100279.63;5066649;28;8883;-58
2021/03/25 01:00:44;;;;;;;;;77.75;54.00;;;;;-1.74;87.24;100276.13;5067713;28;8846;-59
2021/03/25 01:03:14;;;;;;;;;69.25;51.00;;;;;-1.56;86.95;100276.94;5065214;28;8832;-58
2021/03/25 01:05:41;;;;;;;;;75.50;54.75;;;;;-1.31;86.87;100276.03;5071471;28;8830;-58
2021/03/25 01:08:10;;;;;;;;;87.75;63.00;;;;;-1.65;86.86;100278.75;5060565;28;8813;-58
2021/03/25 01:10:43;;;;;;;;;74.50;57.75;;;;;-1.26;86.62;100284.75;5065347;28;8842;-58
2021/03/25 01:13:21;;;;;;;;;78.25;52.50;;;;;-1.46;85.33;100287.47;5065937;28;8854;-59
2021/03/25 01:15:48;;;;;;;;;80.00;60.50;;;;;-1.48;86.08;100286.59;5063336;28;8865;-59
2021/03/25 01:18:16;;;;;;;;;69.50;49.00;;;;;-1.71;86.29;100287.53;5062476;28;8873;-59
2021/03/25 01:20:44;;;;;;;;;84.00;58.50;;;;;-2.14;86.17;100277.06;5064010;28;8888;-59
2021/03/25 01:23:11;;;;;;;;;82.50;51.00;;;;;-2.02;87.16;100274.41;5062703;28;9578;-59
2021/03/25 01:25:40;;;;;;;;;75.75;53.00;;;;;-2.10;85.64;100276.19;5081818;28;8861;-59
2021/03/25 01:28:11;;;;;;;;;75.00;56.50;;;;;-2.32;87.12;100277.06;5058943;28;8844;-59
2021/03/25 01:30:39;;;;;;;;;74.00;51.50;;;;;-2.05;87.42;100277.06;5065600;28;8862;-58
2021/03/25 01:33:08;;;;;;;;;82.75;51.75;;;;;-2.29;87.23;100280.56;5068755;28;8831;-58
2021/03/25 01:35:39;;;;;;;;;73.50;50.50;;;;;-2.00;87.37;100280.56;5069399;28;8825;-60
2021/03/25 01:38:10;;;;;;;;;79.50;55.75;;;;;-2.18;87.75;100280.56;5058661;28;8843;-59
2021/03/25 01:40:40;;;;;;;;;79.75;58.50;;;;;-2.33;87.61;100275.31;5062794;28;8842;-59
2021/03/25 01:43:43;;;;;;;;;77.50;54.00;;;;;-1.84;85.92;100264.75;5062950;28;8951;-59
2021/03/25 01:46:22;;;;;;;;;66.00;48.75;;;;;-1.92;86.96;100267.41;5067280;28;8826;-59
2021/03/25 01:48:53;;;;;;;;;84.00;53.00;;;;;-2.14;87.37;100270.91;5062069;28;8837;-59
2021/03/25 01:51:58;;;;;;;;;69.25;50.00;;;;;-1.79;86.18;100270.84;5056649;28;8840;-59
2021/03/25 01:54:24;;;;;;;;;71.75;47.00;;;;;-2.42;87.50;100270.94;5061626;28;8828;-58
2021/03/25 01:57:02;;;;;;;;;71.25;49.25;;;;;-2.17;87.31;100260.41;5061219;28;9570;-59
2021/03/25 01:59:31;;;;;;;;;73.00;52.00;;;;;-2.25;87.50;100263.03;5068614;28;8834;-59
2021/03/25 02:02:27;;;;;;;;;69.75;48.75;;;;;-2.49;88.49;100259.53;5068306;28;8833;-59
2021/03/25 02:05:20;;;;;;;;;69.00;48.75;;;;;-2.68;88.16;100271.78;5077619;28;8830;-59
2021/03/25 02:08:11;;;;;;;;;78.75;54.75;;;;;-2.48;87.59;100260.41;5066915;28;8830;-59
2021/03/25 02:10:59;;;;;;;;;70.00;51.00;;;;;-2.20;87.62;100263.91;5060777;28;8857;-59
2021/03/25 02:13:48;;;;;;;;;69.75;48.00;;;;;-2.34;87.51;100263.03;5061174;28;8844;-59
2021/03/25 02:16:27;;;;;;;;;67.00;48.00;;;;;-2.29;87.92;100258.63;5068615;28;8837;-58
2021/03/25 02:19:28;;;;;;;;;105.25;72.25;;;;;-2.48;88.81;100266.53;5061864;28;8852;-59
2021/03/25 02:22:22;;;;;;;;;69.25;51.00;;;;;-2.24;88.39;100270.94;5062424;28;8871;-59
2021/03/25 02:25:06;;;;;;;;;60.75;45.00;;;;;-2.26;88.25;100267.44;5079939;28;8857;-59
2021/03/25 02:28:27;;;;;;;;;69.75;47.00;;;;;-2.54;87.19;100261.28;5079916;28;8854;-59
2021/03/25 02:31:13;;;;;;;;;57.25;45.75;;;;;-2.81;87.96;100266.50;5045881;28;8975;-59
2021/03/25 02:33:46;;;;;;;;;67.50;50.00;;;;;-2.36;87.17;100267.44;5065786;28;8832;-59
2021/03/25 02:36:18;;;;;;;;;66.75;47.50;;;;;-2.68;86.96;100273.53;5067832;28;9530;-59
2021/03/25 02:39:01;;;;;;;;;53.50;45.00;;;;;-2.65;87.46;100273.53;5066949;28;8836;-58
2021/03/25 02:41:38;;;;;;;;;64.00;52.00;;;;;-2.31;87.82;100268.31;5053463;28;8868;-57
2021/03/25 02:44:13;;;;;;;;;56.75;40.50;;;;;-1.99;87.78;100277.03;5056915;28;8852;-57
2021/03/25 02:46:50;;;;;;;;;54.50;41.25;;;;;-1.86;86.91;100272.66;5060581;28;9564;-57
2021/03/25 02:49:25;;;;;;;;;61.00;42.50;;;;;-1.93;87.04;100270.03;5064204;28;8847;-58
2021/03/25 02:52:20;;;;;;;;;47.50;31.00;;;;;-1.51;86.14;100273.44;5065372;28;8833;-57
2021/03/25 02:54:48;;;;;;;;;38.75;29.25;;;;;-1.30;85.16;100276.00;5060374;28;8840;-58
2021/03/25 02:57:56;;;;;;;;;41.50;33.75;;;;;-1.78;86.62;100283.16;5062345;28;8890;-58
2021/03/25 03:00:36;;;;;;;;;46.50;37.00;;;;;-1.90;86.98;100283.16;5056995;28;8875;-58
2021/03/25 03:03:14;;;;;;;;;51.00;38.00;;;;;-1.49;85.93;100276.94;5086226;28;8829;-58
2021/03/25 03:05:44;;;;;;;;;59.75;41.00;;;;;-1.58;87.37;100277.81;5060479;28;8824;-58
2021/03/25 03:08:26;;;;;;;;;63.00;44.00;;;;;-1.60;86.89;100280.50;5062392;28;8854;-58
2021/03/25 03:11:22;;;;;;;;;36.50;28.50;;;;;-1.47;86.63;100275.19;5058364;28;8837;-57
2021/03/25 03:14:04;;;;;;;;;52.25;38.25;;;;;-1.42;86.68;100283.94;5082184;28;8832;-57
2021/03/25 03:16:56;;;;;;;;;59.75;40.25;;;;;-1.26;86.41;100282.13;5072537;28;8848;-59
2021/03/25 03:19:32;;;;;;;;;62.50;45.25;;;;;-1.52;85.93;100282.22;5066669;28;8826;-58
2021/03/25 03:22:07;;;;;;;;;59.50;33.00;;;;;-1.59;87.64;100276.97;5060541;28;8845;-58
2021/03/25 03:24:35;;;;;;;;;51.50;36.00;;;;;-1.28;86.69;100279.50;5063508;28;8850;-58
2021/03/25 03:27:20;;;;;;;;;32.75;22.00;;;;;-0.72;84.36;100285.38;5069209;28;8833;-58
2021/03/25 03:29:50;;;;;;;;;45.50;39.75;;;;;-0.91;84.11;100282.84;5061792;28;8832;-59
2021/03/25 03:32:32;;;;;;;;;50.50;41.00;;;;;-1.49;86.47;100287.47;5073339;28;9588;-58
2021/03/25 03:35:21;;;;;;;;;53.00;40.75;;;;;-1.16;86.83;100284.72;5074160;28;8838;-58
2021/03/25 03:37:56;;;;;;;;;64.75;48.25;;;;;-1.50;86.52;100281.34;5067850;28;8854;-59
2021/03/25 03:40:34;;;;;;;;;67.00;40.50;;;;;-1.72;88.08;100284.91;5066408;28;8858;-58
2021/03/25 03:43:12;;;;;;;;;73.75;55.75;;;;;-1.39;88.17;100283.94;5060876;28;8837;-58
2021/03/25 03:45:46;;;;;;;;;55.75;38.00;;;;;-1.63;88.42;100287.53;5070405;28;8821;-59
2021/03/25 03:48:37;;;;;;;;;70.50;45.25;;;;;-2.11;87.66;100286.69;5085873;28;8856;-56
2021/03/25 03:51:08;;;;;;;;;66.00;48.75;;;;;-1.90;87.27;100280.53;5075337;28;9573;-54
2021/03/25 03:53:37;;;;;;;;;68.00;47.50;;;;;-1.93;87.18;100275.28;5074794;28;8841;-57
2021/03/25 03:56:20;;;;;;;;;68.25;50.50;;;;;-2.06;86.68;100288.44;5074860;28;8944;-55
2021/03/25 03:58:59;;;;;;;;;93.00;62.00;;;;;-2.05;87.26;100292.84;5074749;28;8826;-55
2021/03/25 04:01:37;;;;;;;;;77.00;54.75;;;;;-1.59;84.77;100282.22;5075190;28;8854;-56
2021/03/25 04:04:12;;;;;;;;;82.50;55.00;;;;;-1.34;84.36;100283.03;5074781;28;8849;-56
2021/03/25 04:06:51;;;;;;;;;77.25;53.50;;;;;-1.35;84.85;100280.41;5074318;28;8825;-52
2021/03/25 04:10:06;;;;;;;;;64.00;47.25;;;;;-0.97;84.66;100287.28;5057972;28;8907;-56
2021/03/25 04:12:38;;;;;;;;;83.25;53.25;;;;;-1.09;84.27;100284.69;5074975;28;8845;-53
2021/03/25 04:15:19;;;;;;;;;83.50;59.50;;;;;-1.35;86.36;100285.66;5063388;28;8832;-56
2021/03/25 04:17:52;;;;;;;;;69.75;49.00;;;;;-1.30;87.29;100277.75;5065488;28;8919;-57
2021/03/25 04:20:23;;;;;;;;;66.50;46.25;;;;;-1.18;87.58;100283.84;5074426;28;8901;-56
2021/03/25 04:22:58;;;;;;;;;47.50;36.50;;;;;-0.99;87.32;100289.03;5074024;28;8842;-55
2021/03/25 04:25:40;;;;;;;;;64.50;46.25;;;;;-0.60;85.08;100297.63;5073895;28;8853;-56
2021/03/25 04:28:28;;;;;;;;;103.50;74.00;;;;;-1.27;86.17;100301.44;5075150;28;8852;-55
2021/03/25 04:30:55;;;;;;;;;103.75;69.50;;;;;-0.93;85.78;100300.41;5074402;28;8849;-55
2021/03/25 04:33:26;;;;;;;;;96.25;66.25;;;;;-0.90;86.01;100299.53;5073685;28;8948;-56
2021/03/25 04:35:55;;;;;;;;;74.50;52.00;;;;;-0.79;86.76;100295.09;5075102;28;8906;-54
2021/03/25 04:38:32;;;;;;;;;62.00;40.50;;;;;-0.63;86.27;100297.63;5073853;28;8930;-57
2021/03/25 04:41:01;;;;;;;;;61.25;44.50;;;;;-0.64;85.90;100296.75;5074258;28;8865;-55
2021/03/25 04:43:40;;;;;;;;;53.50;42.50;;;;;-0.61;85.98;100291.44;5074041;28;8833;-55
2021/03/25 04:46:44;;;;;;;;;58.50;46.75;;;;;-0.67;86.03;100295.00;5075078;28;8825;-56
2021/03/25 04:49:31;;;;;;;;;69.25;47.50;;;;;-0.81;86.81;100293.34;5074512;28;8842;-56
2021/03/25 04:52:08;;;;;;;;;61.25;44.25;;;;;-0.88;87.34;100295.13;5074123;28;8940;-54
2021/03/25 04:54:39;;;;;;;;;54.25;35.50;;;;;-0.61;87.38;100311.66;5090308;28;8834;-57
2021/03/25 04:57:18;;;;;;;;;57.25;41.50;;;;;-0.41;86.90;100315.06;5074703;28;8846;-56
2021/03/25 04:59:45;;;;;;;;;56.00;40.25;;;;;-0.28;85.99;100306.19;5074418;28;8829;-57
2021/03/25 05:02:13;;;;;;;;;65.25;42.50;;;;;-0.46;86.85;100308.94;5073471;28;8845;-57
2021/03/25 05:04:48;;;;;;;;;66.75;49.75;;;;;-0.28;85.40;100311.44;5073730;28;8834;-57
2021/03/25 05:07:29;;;;;;;;;70.50;52.50;;;;;-0.44;86.83;100315.09;5073946;28;8857;-56
2021/03/25 05:09:58;;;;;;;;;63.00;48.00;;;;;-0.62;87.40;100316.06;5074532;28;8843;-56
2021/03/25 05:12:26;;;;;;;;;61.25;45.00;;;;;-0.53;87.50;100312.50;5073210;28;8873;-54
2021/03/25 05:15:12;;;;;;;;;77.00;57.50;;;;;-0.52;87.99;100316.91;5069236;28;8814;-53
2021/03/25 05:18:23;;;;;;;;;66.50;48.00;;;;;-0.22;87.49;100316.66;5056531;28;8825;-56
2021/03/25 05:21:14;;;;;;;;;75.50;53.00;;;;;-0.08;86.73;100318.31;5064040;28;8869;-55
2021/03/25 05:24:23;;;;;;;;;62.75;50.00;;;;;0.19;85.25;100320.75;5073767;28;8830;-56
2021/03/25 05:27:03;;;;;;;;;77.50;56.75;;;;;-0.13;86.66;100322.75;5056372;28;8829;-56
2021/03/25 05:29:30;;;;;;;;;65.00;50.50;;;;;-0.35;87.08;100314.13;5073682;28;8841;-56
2021/03/25 05:31:59;;;;;;;;;86.00;60.75;;;;;-0.42;88.06;100321.25;5073232;28;9620;-57
2021/03/25 05:34:28;;;;;;;;;81.50;60.00;;;;;0.24;86.02;100315.44;5072730;28;9586;-57
2021/03/25 05:36:58;;;;;;;;;71.25;55.50;;;;;0.39;84.32;100323.19;5072788;28;8848;-57
2021/03/25 05:39:26;;;;;;;;;76.75;56.50;;;;;0.31;84.55;100324.16;5073415;28;8837;-56
2021/03/25 05:42:04;;;;;;;;;82.00;58.00;;;;;0.39;84.08;100317.91;5073935;28;8934;-57
2021/03/25 05:44:55;;;;;;;;;69.75;56.25;;;;;0.12;86.80;100326.97;5072846;28;8865;-57
2021/03/25 05:47:31;;;;;;;;;89.25;59.00;;;;;0.06;87.37;100326.16;5073764;28;9600;-58
2021/03/25 05:50:15;;;;;;;;;76.25;54.75;;;;;0.47;86.83;100323.09;5073748;28;8861;-57
2021/03/25 05:53:25;;;;;;;;;81.50;59.25;;;;;0.41;85.64;100333.75;5072808;28;8822;-57
2021/03/25 05:56:19;;;;;;;;;88.00;64.50;;;;;0.04;87.28;100322.66;5073212;28;8833;-57
2021/03/25 05:58:55;;;;;;;;;78.00;54.25;;;;;0.49;85.41;100325.75;5073566;28;8944;-56
2021/03/25 06:01:38;;;;;;;;;75.25;49.25;;;;;0.56;84.37;100330.94;5072754;28;8853;-57
2021/03/25 06:04:19;;;;;;;;;83.00;62.50;;;;;0.37;85.62;100326.72;5072342;28;8945;-57
2021/03/25 06:07:15;;;;;;;;;75.25;57.00;;;;;0.65;85.12;100337.91;5072432;28;8956;-57
2021/03/25 06:10:13;;;;;;;;;83.75;58.00;;;;;0.69;84.80;100336.13;5073462;28;8840;-57
2021/03/25 06:13:16;;;;;;;;;74.75;52.75;;;;;0.80;85.66;100331.59;5073249;28;8834;-57
2021/03/25 06:16:30;;;;;;;;;95.25;66.75;;;;;0.76;86.46;100343.06;5032394;28;8844;-57
2021/03/25 06:19:58;;;;;;;;;84.25;61.50;;;;;1.18;84.20;100335.50;5072165;28;9561;-57
2021/03/25 06:22:47;;;;;;;;;84.50;60.00;;;;;1.33;83.38;100337.97;5067798;28;8873;-58
2021/03/25 06:25:41;;;;;;;;;76.25;57.00;;;;;1.04;83.96;100341.84;5073363;28;8841;-56
2021/03/25 06:28:30;;;;;;;;;73.00;55.00;;;;;1.43;83.44;100350.19;5072239;28;8841;-58
2021/03/25 06:31:15;;;;;;;;;59.00;38.75;;;;;1.61;82.65;100350.84;5052192;28;8840;-57
2021/03/25 06:34:02;;;;;;;;;92.00;66.50;;;;;1.65;83.84;100353.38;5058517;28;8826;-58
2021/03/25 06:36:54;;;;;;;;;77.75;56.75;;;;;1.90;83.10;100356.56;5073111;28;8948;-57
2021/03/25 06:39:30;;;;;;;;;91.50;63.50;;;;;1.91;82.42;100350.34;5072228;28;8852;-58
2021/03/25 06:42:14;;;;;;;;;84.00;59.25;;;;;2.09;82.15;100356.28;5072378;28;8881;-57
2021/03/25 06:44:58;;;;;;;;;82.75;60.75;;;;;2.27;82.02;100360.41;5071615;28;8837;-57
2021/03/25 06:47:39;;;;;;;;;92.50;62.75;;;;;2.37;81.30;100365.50;5072288;28;8853;-58
2021/03/25 06:50:07;;;;;;;;;88.25;62.50;;;;;2.35;80.84;100361.13;5071973;28;8844;-57
2021/03/25 06:52:38;;;;;;;;;100.50;68.25;;;;;2.34;81.35;100367.31;5072653;28;8869;-58
2021/03/25 06:55:22;;;;;;;;;94.25;68.50;;;;;2.47;81.07;100368.84;5072906;28;8841;-57
2021/03/25 06:58:06;;;;;;;;;89.75;62.50;;;;;2.64;80.48;100363.28;5073022;28;8829;-58
2021/03/25 07:00:43;;;;;;;;;85.00;64.75;;;;;2.92;79.56;100370.69;5071819;28;8830;-57
2021/03/25 07:03:17;;;;;;;;;98.25;70.50;;;;;3.03;79.59;100369.59;5071653;28;8833;-57
2021/03/25 07:05:46;;;;;;;;;107.50;75.00;;;;;3.17;79.53;100369.31;5052093;28;8954;-58
2021/03/25 07:08:19;;;;;;;;;122.25;94.00;;;;;3.16;81.23;100364.91;5052900;28;8828;-58
2021/03/25 07:10:52;;;;;;;;;109.75;88.25;;;;;3.01;79.84;100365.22;5052037;28;8949;-58
2021/03/25 07:13:41;;;;;;;;;108.25;81.25;;;;;3.26;79.32;100371.75;5058789;28;8834;-58
2021/03/25 07:16:11;;;;;;;;;110.00;81.25;;;;;3.49;78.43;100367.75;5068282;28;8854;-58
2021/03/25 07:19:04;;;;;;;;;103.25;73.25;;;;;3.64;77.72;100369.22;5056697;28;8960;-58
2021/03/25 07:21:38;;;;;;;;;104.50;79.75;;;;;3.88;77.14;100370.44;5051824;28;8873;-54
2021/03/25 07:24:12;;;;;;;;;109.50;79.25;;;;;3.95;76.98;100377.38;5088565;28;8968;-57
2021/03/25 07:26:45;;;;;;;;;91.50;64.50;;;;;3.93;76.64;100373.88;5072174;28;8817;-57
2021/03/25 07:29:11;;;;;;;;;85.75;66.25;;;;;4.09;74.90;100369.94;5071256;28;8853;-56
2021/03/25 07:31:56;;;;;;;;;86.50;65.25;;;;;4.25;74.44;100369.56;5071874;28;8829;-57
2021/03/25 07:35:12;;;;;;;;;84.75;63.00;;;;;4.56;72.61;100373.19;5071451;28;8826;-57
2021/03/25 07:37:42;;;;;;;;;80.25;59.50;;;;;4.83;70.92;100373.38;5029561;28;8823;-58
2021/03/25 07:40:34;;;;;;;;;81.50;56.25;;;;;4.64;71.44;100378.31;5066525;28;8848;-57
2021/03/25 07:43:24;;;;;;;;;636.50;442.00;;;;;4.45;73.01;100372.59;5044359;28;8845;-57
2021/03/25 07:46:20;;;;;;;;;85.50;58.75;;;;;4.98;72.35;100383.59;5099142;28;8825;-58
2021/03/25 07:49:02;;;;;;;;;69.25;51.50;;;;;4.90;71.55;100380.28;5068183;28;8864;-58
2021/03/25 07:52:10;;;;;;;;;65.25;51.00;;;;;4.88;72.00;100379.44;5069994;28;8830;-57
2021/03/25 07:54:40;;;;;;;;;102.50;80.00;;;;;5.42;68.97;100377.91;5055880;28;9954;-58
2021/03/25 07:57:25;;;;;;;;;106.25;87.25;;;;;5.68;68.62;100371.81;5066872;28;8832;-57
2021/03/25 07:59:58;;;;;;;;;52.25;36.75;;;;;5.84;70.08;100374.88;5072376;28;8902;-57
2021/03/25 08:02:42;;;;;;;;;72.25;54.00;;;;;6.11;67.75;100373.19;5068163;28;8891;-57
2021/03/25 08:05:21;;;;;;;;;70.50;52.00;;;;;5.76;65.53;100375.09;5055066;28;8846;-58
2021/03/25 08:07:52;;;;;;;;;70.00;54.25;;;;;5.82;62.99;100372.28;5055659;28;8828;-58
2021/03/25 08:10:43;;;;;;;;;62.00;48.75;;;;;6.14;62.30;100378.41;5054878;28;8897;-59
2021/03/25 08:13:22;;;;;;;;;58.25;44.25;;;;;6.43;63.31;100381.94;5054718;28;8866;-56
2021/03/25 08:16:11;;;;;;;;;64.75;49.00;;;;;6.49;61.88;100379.03;5055523;28;8831;-58
2021/03/25 08:19:16;;;;;;;;;60.50;46.50;;;;;6.82;60.40;100367.22;5066139;28;8852;-57
2021/03/25 08:22:00;;;;;;;;;46.33;36.33;;;;;7.11;55.00;100367.97;5075503;28;8857;-58
2021/03/25 08:24:52;;;;;;;;;41.00;34.33;;;;;6.98;50.34;100372.00;5074478;28;8838;-58
2021/03/25 08:28:09;;;;;;;;;34.00;17.00;;;;;7.22;48.33;100376.47;5059763;28;8836;-56
2021/03/25 08:31:09;;;;;;;;;44.00;26.33;;;;;7.24;48.94;100373.72;5055101;28;8929;-59
2021/03/25 08:34:29;;;;;;;;;26.00;18.67;;;;;7.44;43.29;100356.94;5070245;28;9522;-58
2021/03/25 08:37:44;;;;;;;;;46.00;38.00;;;;;7.56;51.85;100364.50;5075300;28;8849;-58
2021/03/25 08:40:31;;;;;;;;;50.00;39.00;;;;;7.61;53.15;100362.53;5074456;28;8817;-59
2021/03/25 08:43:02;;;;;;;;;43.33;40.00;;;;;7.60;53.81;100368.78;5074077;28;9578;-58
2021/03/25 08:45:59;;;;;;;;;41.00;35.00;;;;;7.63;55.14;100363.31;5057464;28;8855;-56
2021/03/25 08:48:38;;;;;;;;;39.67;33.33;;;;;8.14;54.57;100364.88;5071761;28;8850;-58
2021/03/25 08:51:19;;;;;;;;;44.00;33.67;;;;;8.29;52.39;100365.16;5073222;28;8841;-58
2021/03/25 08:53:59;;;;;;;;;45.00;34.67;;;;;8.28;53.56;100360.75;5074383;28;8852;-58
2021/03/25 08:56:45;;;;;;;;;37.00;28.67;;;;;8.60;50.75;100369.28;5074176;28;8867;-58
2021/03/25 08:59:22;;;;;;;;;32.67;30.00;;;;;8.74;50.66;100358.84;5074803;28;8863;-57
2021/03/25 09:02:09;;;;;;;;;31.67;26.67;;;;;8.87;48.81;100360.06;5074612;28;8841;-58
2021/03/25 09:05:23;;;;;;;;;40.00;37.00;;;;;8.86;49.94;100362.81;5069695;28;8950;-58
2021/03/25 09:07:53;;;;;;;;;45.00;31.00;;;;;8.76;48.51;100357.84;5033894;28;8940;-58
2021/03/25 09:10:37;;;;;;;;;37.00;30.00;;;;;8.78;47.85;100360.47;5072778;28;8857;-58
2021/03/25 09:13:04;;;;;;;;;40.33;25.67;;;;;9.59;47.04;100355.94;5073127;28;8826;-59
2021/03/25 09:15:30;;;;;;;;;30.00;29.33;;;;;10.16;47.81;100355.88;5063822;28;8828;-58
2021/03/25 09:18:08;;;;;;;;;24.00;18.67;;;;;10.43;44.74;100357.25;5052780;28;8840;-59
2021/03/25 09:20:40;;;;;;;;;23.00;18.00;;;;;9.35;43.88;100348.09;5064537;28;8850;-59
2021/03/25 09:23:31;;;;;;;;;22.33;21.00;;;;;10.37;42.45;100351.31;5071612;28;11655;-58
2021/03/25 09:26:10;;;;;;;;;16.00;15.67;;;;;9.90;41.15;100350.00;5071476;28;11542;-58
2021/03/25 09:28:58;;;;;;;;;17.33;14.67;;;;;9.88;40.00;100358.09;5072279;28;11536;-58
2021/03/25 09:31:39;;;;;;;;;19.00;13.25;;;;;10.55;39.11;100351.25;5072582;28;11587;-58
2021/03/25 09:34:12;;;;;;;;;18.50;16.75;;;;;10.30;39.31;100348.94;5071878;28;11558;-59
2021/03/25 09:36:42;;;;;;;;;19.50;15.00;;;;;10.25;39.61;100350.94;5072020;28;11551;-59
2021/03/25 09:39:37;;;;;;;;;18.25;14.50;;;;;10.25;38.71;100350.09;5071385;28;11530;-59
2021/03/25 09:42:14;;;;;;;;;24.50;15.25;;;;;10.15;40.17;100354.16;5071801;28;11542;-58
2021/03/25 09:45:20;;;;;;;;;17.75;15.00;;;;;10.30;38.52;100346.25;5060640;28;11566;-58
2021/03/25 09:48:02;;;;;;;;;15.00;13.25;;;;;10.68;38.57;100343.44;5052264;28;11570;-58
2021/03/25 09:50:33;;;;;;;;;20.25;17.75;;;;;10.72;38.50;100345.03;5051407;28;11565;-59
2021/03/25 09:53:17;;;;;;;;;17.00;14.00;;;;;10.51;38.38;100341.63;5070848;28;11544;-59
2021/03/25 09:56:28;;;;;;;;;18.25;16.50;;;;;10.49;38.41;100342.66;5071713;28;11529;-58
2021/03/25 09:58:59;;;;;;;;;16.25;14.00;;;;;10.50;37.71;100339.00;5071861;28;12667;-58
2021/03/25 10:01:40;;;;;;;;;25.50;20.75;;;;;10.11;38.25;100340.03;5070316;28;11570;-58
2021/03/25 10:04:39;;;;;;;;;21.00;18.75;;;;;11.58;38.13;100343.09;5071557;28;11562;-58
2021/03/25 10:07:12;;;;;;;;;18.50;15.50;;;;;11.16;37.95;100333.75;5070741;28;11584;-59
2021/03/25 10:10:00;;;;;;;;;21.50;14.25;;;;;11.19;37.35;100330.91;5071511;28;11535;-59
2021/03/25 10:13:17;;;;;;;;;17.25;15.50;;;;;11.93;37.90;100324.19;5070131;28;11550;-59
2021/03/25 10:16:04;;;;;;;;;19.00;16.50;;;;;11.50;36.92;100326.53;5066806;28;11542;-59
2021/03/25 10:18:51;;;;;;;;;23.50;15.75;;;;;11.05;37.28;100329.91;5058117;28;11568;-59
2021/03/25 10:21:54;;;;;;;;;22.25;20.25;;;;;10.62;37.99;100324.97;5051325;28;11557;-58
2021/03/25 10:24:42;;;;;;;;;23.00;17.33;;;;;10.36;38.58;100325.41;5066293;28;11550;-59
2021/03/25 10:27:23;;;;;;;;;29.00;23.00;;;;;11.09;36.62;100321.59;5050138;28;11560;-58
2021/03/25 10:29:51;;;;;;;;;15.00;15.00;;;;;11.37;37.53;100320.09;5066687;28;11600;-58
2021/03/25 10:32:42;;;;;;;;;54.67;42.33;;;;;11.68;35.84;100321.09;5050519;28;11560;-58
2021/03/25 10:35:25;;;;;;;;;31.25;24.25;;;;;12.03;35.65;100311.03;5050981;28;9734;-59
2021/03/25 10:37:58;;;;;;;;;57.67;46.33;;;;;12.56;35.67;100311.53;5051278;28;11656;-59
2021/03/25 10:40:41;;;;;;;;;23.50;19.25;;;;;12.57;35.36;100316.00;5050448;28;9670;-59
2021/03/25 10:43:23;;;;;;;;;18.00;16.00;;;;;12.71;34.82;100307.94;5059681;28;11548;-59
2021/03/25 10:45:54;;;;;;;;;18.00;15.75;;;;;11.74;34.67;100301.91;5070692;28;11618;-58
2021/03/25 10:48:39;;;;;;;;;28.75;23.00;;;;;12.52;33.66;100308.16;5071221;28;11654;-59
2021/03/25 10:51:12;;;;;;;;;16.25;15.75;;;;;11.92;34.01;100300.03;5070899;28;12354;-59
2021/03/25 10:53:53;;;;;;;;;12.25;10.00;;;;;12.18;33.87;100307.47;5071691;28;11610;-58
2021/03/25 10:56:25;;;;;;;;;22.00;16.75;;;;;12.73;33.88;100301.50;5070232;28;11615;-60
2021/03/25 10:59:20;;;;;;;;;46.75;36.25;;;;;11.98;33.44;100299.66;5070011;28;11577;-59
2021/03/25 11:01:55;;;;;;;;;26.50;17.50;;;;;11.91;35.09;100295.63;5066231;28;11647;-59
2021/03/25 11:04:34;;;;;;;;;20.75;16.00;;;;;11.39;34.73;100296.69;5051568;28;11575;-58
2021/03/25 11:07:23;;;;;;;;;32.50;27.75;;;;;11.62;35.14;100293.59;5051501;28;11584;-58
2021/03/25 11:10:00;;;;;;;;;16.00;13.00;;;;;11.64;35.35;100291.69;5069212;28;12447;-59
2021/03/25 11:12:33;;;;;;;;;21.75;18.00;;;;;11.51;35.18;100296.00;5070327;28;11582;-58
2021/03/25 11:15:21;;;;;;;;;28.00;25.25;;;;;11.38;35.98;100292.28;5058622;28;12453;-58
2021/03/25 11:17:48;;;;;;;;;45.67;36.00;;;;;11.10;36.00;100290.22;5080926;28;11628;-58
2021/03/25 11:20:21;;;;;;;;;54.67;44.00;;;;;10.92;37.07;100289.38;5070131;28;8880;-59
2021/03/25 11:22:49;;;;;;;;;38.00;35.33;;;;;10.29;36.17;100284.59;5069691;28;8869;-59
2021/03/25 11:25:27;;;;;;;;;17.25;13.50;;;;;10.41;36.43;100280.44;5053656;28;11598;-59
2021/03/25 11:28:10;;;;;;;;;33.67;29.67;;;;;10.76;37.17;100279.44;5069924;28;11563;-58
2021/03/25 11:31:17;;;;;;;;;42.00;36.00;;;;;10.94;35.37;100276.72;5053941;28;12341;-60
2021/03/25 11:33:45;;;;;;;;;18.00;14.00;;;;;11.37;36.36;100274.38;5068132;28;8922;-59
2021/03/25 11:36:42;;;;;;;;;19.75;16.25;;;;;11.17;35.07;100270.97;5053581;28;11558;-59
2021/03/25 11:39:31;;;;;;;;;18.75;15.25;;;;;11.34;34.19;100266.50;5054582;28;11556;-58
2021/03/25 11:42:02;;;;;;;;;19.75;15.00;;;;;11.88;35.23;100266.19;5053701;28;11553;-58
2021/03/25 11:44:48;;;;;;;;;43.67;35.33;;;;;12.13;34.14;100262.94;5068068;28;11586;-59
2021/03/25 11:47:36;;;;;;;;;19.25;15.50;;;;;10.98;35.47;100248.75;5073722;28;11587;-58
2021/03/25 11:50:15;;;;;;;;;30.75;29.00;;;;;11.93;33.86;100250.63;5073487;28;11540;-59
2021/03/25 11:52:57;;;;;;;;;32.00;25.25;;;;;12.18;35.74;100244.69;5073173;28;11538;-59
2021/03/25 11:55:33;;;;;;;;;21.00;16.00;;;;;12.32;37.08;100244.72;5053694;28;11575;-59
2021/03/25 11:58:27;;;;;;;;;22.50;16.00;;;;;11.82;33.98;100240.44;5068862;28;12265;-59
2021/03/25 12:01:18;;;;;;;;;17.25;14.75;;;;;11.38;34.30;100235.81;5072088;28;11554;-59
2021/03/25 12:03:58;;;;;;;;;49.33;38.67;;;;;11.31;34.30;100229.91;5069246;28;11585;-58
2021/03/25 12:07:14;;;;;;;;;24.50;23.75;;;;;11.57;34.71;100220.34;5074197;28;8853;-59
2021/03/25 12:10:20;;;;;;;;;20.75;19.50;;;;;12.27;34.33;100225.31;5050233;28;11572;-58
2021/03/25 12:12:49;;;;;;;;;14.75;14.25;;;;;12.73;33.57;100230.56;5073103;28;12341;-59
2021/03/25 12:15:17;;;;;;;;;23.00;20.25;;;;;12.06;34.23;100217.53;5062337;28;11590;-59
2021/03/25 12:17:55;;;;;;;;;17.00;15.75;;;;;12.24;34.06;100215.59;5089412;28;11576;-58
2021/03/25 12:20:38;;;;;;;;;28.75;23.75;;;;;11.90;34.63;100213.13;5073484;28;11513;-59